createdAt,value
2019-05-12T00:00:50.989Z,61.90
2019-05-12T00:15:51.180Z,62.31
2019-05-12T00:30:52.350Z,63.29
2019-05-12T00:45:49.482Z,63.71
2019-05-12T01:00:50.947Z,64.06
2019-05-12T01:15:55.361Z,64.02
2019-05-12T01:30:58.617Z,64.41
2019-05-12T01:45:49.216Z,64.68
2019-05-12T02:00:49.166Z,65.07
2019-05-12T02:15:49.262Z,65.54
2019-05-12T02:30:50.714Z,65.02
2019-05-12T02:45:55.027Z,65.33
2019-05-12T03:00:50.332Z,65.06
2019-05-12T03:15:56.016Z,65.34
2019-05-12T03:30:50.032Z,65.41
2019-05-12T03:45:55.830Z,64.16
2019-05-12T04:00:56.801Z,60.42
2019-05-12T04:15:55.937Z,56.32
2019-05-12T04:30:55.626Z,52.48
2019-05-12T04:45:49.643Z,48.73
2019-05-12T05:00:54.097Z,44.67
2019-05-12T05:15:49.840Z,45.41
2019-05-12T05:30:49.772Z,45.58
2019-05-12T05:45:56.092Z,43.47
2019-05-12T06:00:54.792Z,39.47
2019-05-12T06:15:49.038Z,39.60
2019-05-12T06:30:50.205Z,38.42
2019-05-12T06:45:49.841Z,38.73
2019-05-12T07:00:49.673Z,38.44
2019-05-12T07:15:49.956Z,37.70
2019-05-12T07:30:57.186Z,35.53
2019-05-12T07:45:53.975Z,36.38
2019-05-12T08:00:55.267Z,36.64
2019-05-12T08:15:56.426Z,36.99
2019-05-12T08:30:55.872Z,39.66
2019-05-12T08:45:48.893Z,35.97
2019-05-12T09:00:50.538Z,33.85
2019-05-12T09:15:49.880Z,33.95
2019-05-12T09:30:49.947Z,34.92
2019-05-12T09:45:53.942Z,36.08
2019-05-12T10:00:54.164Z,36.22
2019-05-12T10:15:58.775Z,36.38
2019-05-12T10:30:55.306Z,36.41
2019-05-12T10:45:48.913Z,36.47
2019-05-12T11:00:59.003Z,38.49
2019-05-12T11:15:54.535Z,41.13
2019-05-12T11:45:53.484Z,33.43
2019-05-12T12:01:04.741Z,36.68
2019-05-12T12:15:49.364Z,37.23
2019-05-12T12:30:52.450Z,38.82
2019-05-12T12:45:54.631Z,37.67
2019-05-12T13:00:53.787Z,39.86
2019-05-12T13:15:49.384Z,40.80
2019-05-12T13:30:49.746Z,40.67
2019-05-12T13:45:49.111Z,41.57
2019-05-12T14:01:09.169Z,43.37
2019-05-12T14:15:50.087Z,43.80
2019-05-12T14:30:51.593Z,45.92
2019-05-12T14:45:54.235Z,43.68
2019-05-12T15:00:50.963Z,45.39
2019-05-12T15:15:54.898Z,46.54
2019-05-12T15:30:50.973Z,47.82
2019-05-12T15:45:55.451Z,47.58
2019-05-12T16:00:49.564Z,48.55
2019-05-12T16:15:57.505Z,49.55
2019-05-12T16:30:53.552Z,51.57
2019-05-12T16:45:53.644Z,50.76
2019-05-12T17:00:53.441Z,53.63
2019-05-12T17:46:03.661Z,57.47
2019-05-12T18:00:59.232Z,58.23
2019-05-12T18:15:52.981Z,58.23
2019-05-12T18:30:57.577Z,57.50
2019-05-12T19:30:50.329Z,57.76
2019-05-12T19:46:03.138Z,58.40
2019-05-12T20:15:53.624Z,59.94
2019-05-12T20:31:00.706Z,60.35
2019-05-12T21:45:55.221Z,60.01
2019-05-12T22:01:06.880Z,59.70
2019-05-12T22:30:51.102Z,60.23
2019-05-12T22:45:58.168Z,60.31
2019-05-12T23:00:57.394Z,60.48
2019-05-12T23:15:54.177Z,61.10
2019-05-12T23:30:50.184Z,61.76
